Time;durP1;ratioP1;P1;durP2;ratioP2;P2;SDS_P1;SDS_P2;PMS_P1;PMS_P2;Temp;Humidity;BMP_temperature;BMP_pressure;BME280_temperature;BME280_humidity;BME280_pressure;Samples;Min_cycle;Max_cycle;Signal;HPM_P1;HPM_P2
2023/12/07 00:00:08;;;;;;;0.32;0.32;;;3.50;99.90;;;;;;4956297;28;20027;-77
2023/12/07 00:02:33;;;;;;;0.10;0.10;;;3.50;99.90;;;;;;4955551;29;20011;-78
2023/12/07 00:04:59;;;;;;;0.13;0.13;;;3.40;99.90;;;;;;4954387;28;20092;-78
2023/12/07 00:07:25;;;;;;;6.05;5.63;;;3.40;99.90;;;;;;4957056;28;20059;-78
2023/12/07 00:09:51;;;;;;;2.67;2.58;;;3.40;99.90;;;;;;4957860;28;20020;-77
2023/12/07 00:12:20;;;;;;;0.03;0.03;;;3.50;99.90;;;;;;4961312;28;20082;-78
2023/12/07 00:14:57;;;;;;;0.10;0.10;;;3.40;99.90;;;;;;4958667;28;20029;-78
2023/12/07 00:17:22;;;;;;;1.15;1.15;;;4.20;99.90;;;;;;4955074;28;20028;-78
2023/12/07 00:19:53;;;;;;;0.10;0.10;;;3.50;99.90;;;;;;4952910;28;20062;-77
2023/12/07 00:22:20;;;;;;;0.10;0.10;;;3.50;99.90;;;;;;4954474;28;20773;-77
2023/12/07 00:24:46;;;;;;;0.10;0.10;;;3.60;99.90;;;;;;4964007;28;20026;-78
2023/12/07 00:27:11;;;;;;;29.25;26.75;;;3.60;99.90;;;;;;4955060;28;20020;-77
2023/12/07 00:29:38;;;;;;;24.83;23.48;;;3.60;99.90;;;;;;4960036;28;20075;-78
2023/12/07 00:32:04;;;;;;;0.10;0.10;;;3.60;99.90;;;;;;4953513;29;20016;-78
2023/12/07 00:34:30;;;;;;;0.00;0.00;;;3.60;99.90;;;;;;4959312;28;20090;-77
2023/12/07 00:36:57;;;;;;;0.10;0.10;;;3.70;99.90;;;;;;4957131;28;20027;-77
2023/12/07 00:39:23;;;;;;;1.48;1.40;;;;;;;;;;4959110;28;20019;-78
2023/12/07 00:41:49;;;;;;;0.10;0.10;;;3.70;99.90;;;;;;4956946;29;20019;-78
2023/12/07 00:44:18;;;;;;;0.10;0.10;;;3.60;99.90;;;;;;4957878;28;20027;-77
2023/12/07 00:46:47;;;;;;;0.10;0.10;;;3.70;99.90;;;;;;4957672;28;20023;-78
2023/12/07 00:49:23;;;;;;;0.10;0.10;;;3.70;99.90;;;;;;4954779;29;20039;-79
2023/12/07 00:51:54;;;;;;;0.10;0.10;;;3.70;99.90;;;;;;4956415;28;20023;-77
2023/12/07 00:54:21;;;;;;;22.00;10.88;;;3.60;99.90;;;;;;4954009;28;20019;-78
2023/12/07 00:56:47;;;;;;;0.10;0.10;;;;;;;;;;4955139;29;20046;-78
2023/12/07 00:59:13;;;;;;;0.10;0.10;;;3.60;99.90;;;;;;4952425;28;20644;-79
2023/12/07 01:01:42;;;;;;;0.10;0.10;;;3.50;99.90;;;;;;4954033;28;20090;-77
2023/12/07 01:04:07;;;;;;;3.25;3.13;;;3.50;99.90;;;;;;4950715;28;20074;-77
2023/12/07 01:06:33;;;;;;;0.10;0.10;;;3.50;99.90;;;;;;4949735;28;20023;-77
2023/12/07 01:08:59;;;;;;;0.10;0.10;;;3.50;99.90;;;;;;4950605;28;20030;-77
2023/12/07 01:11:25;;;;;;;2.47;2.38;;;3.50;99.90;;;;;;4957600;28;20119;-78
2023/12/07 01:13:51;;;;;;;0.10;0.10;;;3.40;99.90;;;;;;4957824;28;20032;-77
2023/12/07 01:16:17;;;;;;;0.63;0.63;;;3.50;99.90;;;;;;4956459;28;20513;-77
2023/12/07 01:18:44;;;;;;;0.10;0.10;;;3.40;99.90;;;;;;4948849;29;20027;-78
2023/12/07 01:21:10;;;;;;;0.00;0.00;;;3.40;99.90;;;;;;4949634;29;20039;-78
2023/12/07 01:23:36;;;;;;;0.00;0.00;;;3.50;99.90;;;;;;4950877;28;20110;-78
2023/12/07 01:26:02;;;;;;;0.10;0.10;;;3.50;99.90;;;;;;4952938;29;20057;-78
2023/12/07 01:28:28;;;;;;;9.27;5.53;;;3.40;99.90;;;;;;4949691;29;20027;-78
2023/12/07 01:30:54;;;;;;;0.00;0.00;;;3.50;99.90;;;;;;4950142;28;20054;-76
2023/12/07 01:33:21;;;;;;;4.38;4.28;;;3.40;99.90;;;;;;4949106;28;20011;-78
2023/12/07 01:35:48;;;;;;;1.33;1.33;;;3.30;99.90;;;;;;4950545;28;20032;-77
2023/12/07 01:38:13;;;;;;;0.68;0.68;;;3.30;99.90;;;;;;4950785;29;20058;-77
2023/12/07 01:40:39;;;;;;;0.30;0.30;;;3.30;99.90;;;;;;4956666;28;20026;-77
2023/12/07 01:43:05;;;;;;;0.10;0.10;;;3.20;99.90;;;;;;4956469;29;20058;-78
2023/12/07 01:45:31;;;;;;;0.00;0.00;;;3.30;99.90;;;;;;4957759;28;20054;-78
2023/12/07 01:47:58;;;;;;;4.90;4.72;;;3.30;99.90;;;;;;4937844;29;20047;-77
2023/12/07 01:50:25;;;;;;;0.10;0.10;;;3.30;99.90;;;;;;4965416;28;20128;-77
2023/12/07 01:52:56;;;;;;;8.02;7.68;;;3.30;99.90;;;;;;4949866;28;20702;-77
2023/12/07 01:55:23;;;;;;;0.10;0.10;;;3.40;99.90;;;;;;4969800;28;20740;-76
2023/12/07 01:57:49;;;;;;;2.85;2.75;;;3.20;99.90;;;;;;4969796;28;20026;-77
2023/12/07 02:00:16;;;;;;;0.20;0.20;;;3.20;99.90;;;;;;4950241;28;20110;-76
2023/12/07 02:02:43;;;;;;;0.10;0.10;;;3.20;99.90;;;;;;4951869;28;20117;-77
2023/12/07 02:05:09;;;;;;;11.25;10.70;;;3.10;99.90;;;;;;4967284;28;20035;-77
2023/12/07 02:07:35;;;;;;;0.13;0.13;;;3.10;99.90;;;;;;4957634;28;20035;-77
2023/12/07 02:10:03;;;;;;;0.10;0.10;;;3.10;99.90;;;;;;4974332;28;20177;-77
2023/12/07 02:12:29;;;;;;;0.10;0.10;;;3.00;99.90;;;;;;4967204;28;20027;-78
2023/12/07 02:14:56;;;;;;;0.85;0.85;;;3.00;99.90;;;;;;4966130;28;20031;-77
2023/12/07 02:17:31;;;;;;;0.13;0.13;;;3.00;99.90;;;;;;4969101;28;20027;-78
2023/12/07 02:20:16;;;;;;;0.13;0.13;;;3.10;99.90;;;;;;4968219;28;20630;-77
2023/12/07 02:22:43;;;;;;;;;;;3.00;99.90;;;;;;4969364;28;20169;-78
2023/12/07 02:25:14;;;;;;;0.10;0.10;;;3.00;99.90;;;;;;4953661;28;19906;-77
2023/12/07 02:27:49;;;;;;;0.10;0.10;;;3.00;99.90;;;;;;4969753;28;20011;-76
2023/12/07 02:30:15;;;;;;;0.10;0.10;;;3.00;99.90;;;;;;4965951;28;20566;-77
2023/12/07 02:32:46;;;;;;;0.10;0.10;;;3.00;99.90;;;;;;4951684;28;20023;-77
2023/12/07 02:35:13;;;;;;;4.40;4.20;;;3.10;99.90;;;;;;4949652;28;20726;-77
2023/12/07 02:37:50;;;;;;;0.20;0.20;;;3.10;99.90;;;;;;4969323;28;20057;-77
2023/12/07 02:40:20;;;;;;;0.10;0.10;;;2.10;99.90;;;;;;4951728;28;20737;-77
2023/12/07 02:42:47;;;;;;;13.88;12.85;;;3.10;99.90;;;;;;4951102;28;20030;-77
2023/12/07 02:45:14;;;;;;;0.47;0.47;;;3.10;99.90;;;;;;4966550;28;20100;-77
2023/12/07 02:47:44;;;;;;;0.10;0.10;;;3.10;99.90;;;;;;4966519;28;20023;-77
2023/12/07 02:50:11;;;;;;;0.13;0.13;;;3.10;99.90;;;;;;4965392;28;20042;-77
2023/12/07 02:52:37;;;;;;;0.10;0.10;;;3.10;99.90;;;;;;4950433;28;20035;-77
2023/12/07 02:55:05;;;;;;;0.10;0.10;;;3.10;99.90;;;;;;4967547;28;20038;-77
2023/12/07 02:57:33;;;;;;;0.10;0.10;;;3.20;99.90;;;;;;4950578;28;20018;-77
2023/12/07 02:59:59;;;;;;;0.10;0.10;;;3.20;99.90;;;;;;4967634;28;20694;-77
2023/12/07 03:02:25;;;;;;;0.10;0.10;;;3.10;99.90;;;;;;4965136;28;20041;-77
2023/12/07 03:04:52;;;;;;;15.80;14.90;;;3.20;99.90;;;;;;4965650;28;20074;-77
2023/12/07 03:07:23;;;;;;;0.55;0.55;;;3.20;99.90;;;;;;4966011;28;20019;-77
2023/12/07 03:09:53;;;;;;;0.30;0.30;;;3.20;99.90;;;;;;4947163;28;20555;-77
2023/12/07 03:12:23;;;;;;;3.85;3.70;;;3.20;99.90;;;;;;4963727;28;20029;-77
2023/12/07 03:14:52;;;;;;;0.10;0.10;;;3.30;99.90;;;;;;4962906;28;20015;-77
2023/12/07 03:17:24;;;;;;;0.10;0.10;;;3.30;99.90;;;;;;4963320;28;20769;-78
2023/12/07 03:19:55;;;;;;;0.10;0.10;;;3.30;99.90;;;;;;4962588;28;20599;-78
2023/12/07 03:22:38;;;;;;;0.10;0.10;;;3.30;99.90;;;;;;4948085;28;20054;-77
2023/12/07 03:25:10;;;;;;;0.63;0.60;;;4.20;99.90;;;;;;4962806;28;20026;-77
2023/12/07 03:28:04;;;;;;;0.13;0.13;;;3.60;99.90;;;;;;4965707;28;20101;-77
2023/12/07 03:30:30;;;;;;;0.10;0.10;;;3.40;99.90;;;;;;4966195;28;20055;-77
2023/12/07 03:32:59;;;;;;;0.10;0.10;;;3.50;99.90;;;;;;4964189;28;20062;-77
2023/12/07 03:35:31;;;;;;;0.15;0.15;;;3.40;99.90;;;;;;4964464;28;20058;-77
2023/12/07 03:38:03;;;;;;;0.20;0.20;;;3.40;99.90;;;;;;4946608;28;20042;-77
2023/12/07 03:40:29;;;;;;;0.10;0.10;;;;;;;;;;4965587;28;20666;-78
2023/12/07 03:42:54;;;;;;;0.10;0.10;;;3.40;99.90;;;;;;4947221;28;20066;-77
2023/12/07 03:45:32;;;;;;;11.73;11.27;;;3.40;99.90;;;;;;4956943;28;20030;-78
2023/12/07 03:47:58;;;;;;;0.13;0.13;;;3.40;99.90;;;;;;4975275;28;20034;-78
2023/12/07 03:50:24;;;;;;;0.10;0.10;;;3.40;99.90;;;;;;4973919;28;20055;-78
2023/12/07 03:52:50;;;;;;;0.10;0.10;;;3.50;99.90;;;;;;4973987;28;20019;-77
2023/12/07 03:55:16;;;;;;;0.30;0.30;;;3.50;99.90;;;;;;4975328;28;20113;-78
2023/12/07 03:57:42;;;;;;;11.02;4.82;;;3.50;99.90;;;;;;4957055;28;20019;-76
2023/12/07 04:00:11;;;;;;;0.10;0.10;;;3.50;99.90;;;;;;4966373;28;20059;-77
2023/12/07 04:02:37;;;;;;;0.00;0.00;;;3.50;99.90;;;;;;4949342;28;20027;-78
2023/12/07 04:05:03;;;;;;;0.60;0.60;;;3.50;99.90;;;;;;4948210;28;20022;-77
2023/12/07 04:07:32;;;;;;;0.10;0.10;;;4.80;99.90;;;;;;4968019;28;20023;-77
2023/12/07 04:09:57;;;;;;;0.08;0.08;;;3.50;99.90;;;;;;4966429;28;20054;-77
2023/12/07 04:12:23;;;;;;;0.40;0.40;;;3.40;99.90;;;;;;4972695;28;20730;-78
2023/12/07 04:14:51;;;;;;;0.10;0.10;;;3.50;99.90;;;;;;4958634;28;20031;-78
2023/12/07 04:17:17;;;;;;;0.10;0.10;;;3.40;99.90;;;;;;4974269;28;20088;-77
2023/12/07 04:19:43;;;;;;;4.32;4.13;;;3.40;99.90;;;;;;4981264;23;20062;-78
2023/12/07 04:22:09;;;;;;;0.05;0.05;;;3.40;99.90;;;;;;4973253;28;20027;-77
2023/12/07 04:24:35;;;;;;;6.15;5.78;;;3.40;99.90;;;;;;4976935;28;20520;-78
2023/12/07 04:27:00;;;;;;;0.10;0.10;;;3.30;99.90;;;;;;4959495;28;20393;-77
2023/12/07 04:29:26;;;;;;;0.10;0.10;;;3.30;99.90;;;;;;4972030;28;20683;-77
2023/12/07 04:31:53;;;;;;;0.10;0.10;;;3.50;99.90;;;;;;4954211;28;20030;-78
2023/12/07 04:34:19;;;;;;;0.52;0.52;;;3.30;99.90;;;;;;4971710;28;20019;-77
2023/12/07 04:36:46;;;;;;;0.20;0.20;;;3.30;99.90;;;;;;4971322;28;20038;-77
2023/12/07 04:39:12;;;;;;;0.00;0.00;;;3.30;99.90;;;;;;4971156;28;20026;-78
2023/12/07 04:41:38;;;;;;;0.10;0.10;;;3.40;99.90;;;;;;4967094;28;20031;-77
2023/12/07 04:44:07;;;;;;;0.10;0.10;;;3.40;99.90;;;;;;4932756;29;20015;-77
2023/12/07 04:46:33;;;;;;;2.70;2.60;;;3.30;99.90;;;;;;4951277;28;20134;-77
2023/12/07 04:49:00;;;;;;;2.38;2.20;;;3.30;99.90;;;;;;4934118;29;20187;-77
2023/12/07 04:51:25;;;;;;;0.10;0.10;;;3.30;99.90;;;;;;4935704;29;20066;-77
2023/12/07 04:53:53;;;;;;;0.47;0.47;;;3.30;99.90;;;;;;4956272;29;20027;-77
2023/12/07 04:56:20;;;;;;;0.10;0.10;;;3.30;99.90;;;;;;4955959;29;20098;-77
2023/12/07 04:58:45;;;;;;;0.10;0.10;;;3.30;99.90;;;;;;4959122;29;20027;-78
2023/12/07 05:01:12;;;;;;;0.10;0.10;;;3.30;99.90;;;;;;4957212;29;20027;-77
2023/12/07 05:03:37;;;;;;;0.10;0.10;;;3.30;99.90;;;;;;4934628;29;20095;-77
2023/12/07 05:06:04;;;;;;;0.10;0.10;;;3.30;99.90;;;;;;4941702;28;20019;-77
2023/12/07 05:08:29;;;;;;;0.10;0.10;;;3.30;99.90;;;;;;4970278;28;20054;-76
2023/12/07 05:10:55;;;;;;;0.10;0.10;;;3.30;99.90;;;;;;4974275;28;20023;-77
2023/12/07 05:13:21;;;;;;;0.10;0.10;;;3.30;99.90;;;;;;4959223;28;20034;-77
2023/12/07 05:15:46;;;;;;;0.10;0.10;;;3.30;99.90;;;;;;4977800;28;20451;-78
2023/12/07 05:18:12;;;;;;;0.10;0.10;;;3.30;99.90;;;;;;4964844;28;20030;-77
2023/12/07 05:20:39;;;;;;;0.10;0.10;;;3.30;99.90;;;;;;4967296;28;20030;-77
2023/12/07 05:23:07;;;;;;;0.10;0.10;;;3.30;99.90;;;;;;4965489;28;20679;-77
2023/12/07 05:25:33;;;;;;;0.10;0.10;;;3.30;99.90;;;;;;4970905;28;20639;-77
2023/12/07 05:27:59;;;;;;;0.10;0.10;;;3.30;99.90;;;;;;4969438;28;20033;-77
2023/12/07 05:30:25;;;;;;;0.10;0.10;;;3.30;99.90;;;;;;4953419;28;20066;-77
2023/12/07 05:32:50;;;;;;;0.10;0.10;;;3.30;99.90;;;;;;4949547;28;20027;-77
2023/12/07 05:35:16;;;;;;;0.10;0.10;;;3.20;99.90;;;;;;4969258;28;20051;-77
2023/12/07 05:37:42;;;;;;;1.70;1.67;;;3.20;99.90;;;;;;4968269;28;20019;-77
2023/12/07 05:40:09;;;;;;;0.10;0.10;;;3.20;99.90;;;;;;4972552;28;20053;-77
2023/12/07 05:42:35;;;;;;;0.10;0.10;;;3.20;99.90;;;;;;4954730;28;20027;-77
2023/12/07 05:45:04;;;;;;;3.65;3.53;;;3.20;99.90;;;;;;4972631;28;20029;-77
2023/12/07 05:47:30;;;;;;;0.10;0.10;;;3.10;99.90;;;;;;4972284;28;20198;-77
2023/12/07 05:49:58;;;;;;;0.13;0.13;;;3.20;99.90;;;;;;4969939;28;20034;-77
2023/12/07 05:52:23;;;;;;;0.20;0.20;;;3.20;99.90;;;;;;4970116;28;20030;-78
2023/12/07 05:54:49;;;;;;;0.10;0.10;;;3.20;99.90;;;;;;4967388;28;20018;-78
2023/12/07 05:57:15;;;;;;;0.00;0.00;;;3.20;99.90;;;;;;4948846;28;20285;-78
2023/12/07 05:59:42;;;;;;;0.20;0.20;;;3.20;99.90;;;;;;4969799;28;20655;-78
2023/12/07 06:02:09;;;;;;;0.10;0.10;;;3.30;99.90;;;;;;4965797;28;20019;-77
2023/12/07 06:04:34;;;;;;;0.20;0.20;;;3.20;99.90;;;;;;4969462;28;20050;-78
2023/12/07 06:07:00;;;;;;;0.10;0.10;;;3.20;99.90;;;;;;4962902;28;20023;-76
2023/12/07 06:09:26;;;;;;;0.10;0.10;;;3.30;99.90;;;;;;4953011;29;20031;-79
2023/12/07 06:11:54;;;;;;;0.10;0.10;;;3.30;99.90;;;;;;4948918;29;20054;-78
2023/12/07 06:14:20;;;;;;;0.40;0.40;;;;;;;;;;4953751;29;20027;-78
2023/12/07 06:16:45;;;;;;;5.40;5.13;;;3.40;99.90;;;;;;4952808;29;20034;-78
2023/12/07 06:19:50;;;;;;;1.38;1.35;;;3.40;99.90;;;;;;4949207;28;20044;-78
2023/12/07 06:22:15;;;;;;;0.10;0.10;;;5.10;99.90;;;;;;4874860;29;20029;-78
2023/12/07 06:25:01;;;;;;;0.10;0.10;;;3.50;99.90;;;;;;4866691;29;20071;-78
2023/12/07 06:27:47;;;;;;;0.10;0.10;;;6.00;99.90;;;;;;4872148;29;20033;-78
2023/12/07 06:30:16;;;;;;;0.10;0.10;;;3.50;99.90;;;;;;4872707;29;20128;-78
2023/12/07 06:32:44;;;;;;;0.10;0.10;;;3.40;99.90;;;;;;4857345;29;20044;-78
2023/12/07 06:35:19;;;;;;;1.08;1.05;;;3.50;99.90;;;;;;4871351;29;20277;-78
2023/12/07 06:37:45;;;;;;;0.10;0.10;;;3.60;99.90;;;;;;4870160;29;20103;-75
2023/12/07 06:40:14;;;;;;;0.10;0.10;;;3.60;99.90;;;;;;4870646;29;20802;-75
2023/12/07 06:42:40;;;;;;;0.20;0.20;;;3.60;99.90;;;;;;4841641;29;20157;-78
2023/12/07 06:45:10;;;;;;;0.60;0.60;;;3.70;99.90;;;;;;4869412;29;20116;-77
2023/12/07 06:47:38;;;;;;;0.10;0.10;;;3.70;99.90;;;;;;4850984;29;20764;-78
2023/12/07 06:50:08;;;;;;;0.10;0.10;;;3.70;99.90;;;;;;4867109;29;20033;-77
2023/12/07 06:52:34;;;;;;;0.08;0.08;;;3.70;99.90;;;;;;4853305;29;20029;-78
2023/12/07 06:55:01;;;;;;;0.10;0.10;;;;;;;;;;4877107;29;20058;-78
2023/12/07 06:57:27;;;;;;;0.10;0.10;;;3.70;99.90;;;;;;4881935;29;20033;-78
2023/12/07 06:59:53;;;;;;;0.10;0.10;;;3.80;99.90;;;;;;4947948;29;20567;-78
2023/12/07 07:02:23;;;;;;;0.20;0.20;;;3.80;99.90;;;;;;4963061;29;20023;-77
2023/12/07 07:04:51;;;;;;;0.10;0.10;;;3.80;99.90;;;;;;4941161;29;20027;-78
2023/12/07 07:07:23;;;;;;;0.63;0.63;;;3.80;99.90;;;;;;4952199;29;20027;-78
2023/12/07 07:09:55;;;;;;;0.10;0.10;;;3.70;99.90;;;;;;4952747;29;20100;-78
2023/12/07 07:12:34;;;;;;;0.08;0.08;;;3.80;99.90;;;;;;4948868;29;20024;-77
2023/12/07 07:15:00;;;;;;;0.22;0.22;;;;;;;;;;4947239;29;20112;-77
2023/12/07 07:17:29;;;;;;;0.00;0.00;;;3.70;99.90;;;;;;4946607;29;20249;-77
2023/12/07 07:19:55;;;;;;;0.10;0.10;;;3.90;99.90;;;;;;4948607;28;20060;-77
2023/12/07 07:22:21;;;;;;;1.20;1.20;;;3.70;99.90;;;;;;4944490;29;20115;-77
2023/12/07 07:24:56;;;;;;;0.00;0.00;;;3.60;99.90;;;;;;4947783;29;20102;-77
2023/12/07 07:27:23;;;;;;;15.35;4.03;;;3.70;99.90;;;;;;4951694;29;20027;-77
2023/12/07 07:29:48;;;;;;;0.10;0.10;;;3.80;99.90;;;;;;4955633;29;20033;-77
2023/12/07 07:32:15;;;;;;;0.00;0.00;;;3.70;99.90;;;;;;4949689;29;20091;-78
2023/12/07 07:34:42;;;;;;;0.68;0.68;;;;;;;;;;4950820;29;20020;-78
2023/12/07 07:37:07;;;;;;;0.15;0.15;;;3.80;99.90;;;;;;4950606;29;20023;-77
2023/12/07 07:39:34;;;;;;;0.10;0.10;;;;;;;;;;4950579;29;20027;-78
2023/12/07 07:42:00;;;;;;;0.10;0.10;;;3.80;99.90;;;;;;4951148;29;20027;-77
2023/12/07 07:44:30;;;;;;;0.30;0.30;;;3.80;99.90;;;;;;4955352;28;20086;-77
2023/12/07 07:46:56;;;;;;;0.10;0.10;;;3.80;99.90;;;;;;4960283;29;20038;-76
2023/12/07 07:51:52;;;;;;;0.10;0.10;;;3.70;99.90;;;;;;4954359;29;20051;-75
2023/12/07 07:54:25;;;;;;;0.10;0.10;;;3.50;99.90;;;;;;4955734;29;20672;-79
2023/12/07 07:57:00;;;;;;;0.10;0.10;;;3.80;99.90;;;;;;4961286;29;20027;-78
2023/12/07 07:59:26;;;;;;;0.10;0.10;;;3.70;99.90;;;;;;4954685;29;20038;-76
2023/12/07 08:01:51;;;;;;;0.10;0.10;;;3.80;99.90;;;;;;4953027;29;20032;-77
2023/12/07 08:04:18;;;;;;;0.10;0.10;;;3.90;99.90;;;;;;4947736;29;20023;-77
2023/12/07 08:06:44;;;;;;;0.10;0.10;;;4.00;99.90;;;;;;4947902;29;20673;-78
2023/12/07 08:09:10;;;;;;;0.43;0.43;;;4.00;99.90;;;;;;4951860;29;20031;-78
2023/12/07 08:11:35;;;;;;;10.77;9.77;;;4.00;99.90;;;;;;4955113;29;20031;-78
2023/12/07 08:14:21;;;;;;;0.10;0.10;;;4.00;99.90;;;;;;4950891;29;20038;-77
2023/12/07 08:16:47;;;;;;;0.05;0.05;;;2.10;99.90;;;;;;4946738;29;20047;-78
2023/12/07 08:19:13;;;;;;;0.10;0.10;;;4.10;99.90;;;;;;4947820;29;20035;-77
2023/12/07 08:21:39;;;;;;;0.00;0.00;;;4.20;99.90;;;;;;4950885;29;20058;-77
2023/12/07 08:24:08;;;;;;;0.10;0.10;;;4.10;99.90;;;;;;4952115;29;20027;-77
2023/12/07 08:26:34;;;;;;;0.10;0.10;;;4.10;99.90;;;;;;4953869;29;20063;-78
2023/12/07 08:29:01;;;;;;;0.10;0.10;;;4.10;99.90;;;;;;4949093;29;20024;-77
2023/12/07 08:31:30;;;;;;;0.30;0.30;;;4.10;99.90;;;;;;4943764;29;20035;-77
2023/12/07 08:34:00;;;;;;;0.10;0.10;;;4.10;99.90;;;;;;4942704;29;20075;-78
2023/12/07 08:36:26;;;;;;;0.80;0.80;;;4.10;99.90;;;;;;4947255;29;20066;-76
2023/12/07 08:38:54;;;;;;;0.68;0.68;;;4.10;99.90;;;;;;4950246;29;20506;-76
2023/12/07 08:41:20;;;;;;;0.10;0.10;;;4.10;99.90;;;;;;4950913;29;20520;-76
2023/12/07 08:43:48;;;;;;;0.10;0.10;;;4.20;99.90;;;;;;4946085;29;20026;-76
2023/12/07 08:46:14;;;;;;;0.10;0.10;;;4.20;99.90;;;;;;4944627;28;20621;-76
2023/12/07 08:48:45;;;;;;;0.38;0.38;;;4.20;99.90;;;;;;4944045;29;20023;-75
2023/12/07 08:51:11;;;;;;;0.00;0.00;;;;;;;;;;4943682;29;20071;-76
2023/12/07 08:53:38;;;;;;;0.28;0.28;;;4.30;99.90;;;;;;4944101;29;20012;-78
2023/12/07 08:56:04;;;;;;;0.00;0.00;;;4.40;99.90;;;;;;4943977;28;20037;-76
2023/12/07 08:58:30;;;;;;;0.00;0.00;;;4.40;99.90;;;;;;4943299;29;20225;-77
2023/12/07 09:00:56;;;;;;;0.22;0.22;;;5.70;99.90;;;;;;4942293;29;20042;-78
2023/12/07 09:03:27;;;;;;;0.32;0.32;;;4.50;99.90;;;;;;4947025;29;20687;-76
2023/12/07 09:05:54;;;;;;;0.10;0.10;;;4.40;99.90;;;;;;4951885;29;20026;-76
2023/12/07 09:08:40;;;;;;;0.10;0.10;;;4.40;99.90;;;;;;4935118;29;20027;-77
2023/12/07 09:11:06;;;;;;;0.10;0.10;;;;;;;;;;4925613;29;20103;-77
2023/12/07 09:13:32;;;;;;;0.10;0.10;;;4.20;99.90;;;;;;4943348;29;20611;-76
2023/12/07 09:16:09;;;;;;;0.20;0.20;;;4.20;99.90;;;;;;4943719;29;20097;-77
2023/12/07 09:18:36;;;;;;;0.10;0.10;;;4.90;99.90;;;;;;4942772;29;20023;-77
2023/12/07 09:21:08;;;;;;;0.10;0.10;;;3.90;99.90;;;;;;4944505;29;20024;-77
2023/12/07 09:23:35;;;;;;;0.08;0.08;;;3.90;99.90;;;;;;4943463;29;20015;-77
2023/12/07 09:26:01;;;;;;;0.10;0.10;;;4.00;99.90;;;;;;4941377;29;20031;-77
2023/12/07 09:28:27;;;;;;;0.00;0.00;;;4.00;99.90;;;;;;4943860;29;20027;-77
2023/12/07 09:30:52;;;;;;;0.10;0.10;;;4.00;99.90;;;;;;4943156;29;20106;-77
2023/12/07 09:33:19;;;;;;;0.10;0.10;;;4.10;99.90;;;;;;4941621;29;20628;-77
2023/12/07 09:35:47;;;;;;;0.00;0.00;;;4.10;99.90;;;;;;4951288;29;20394;-78
2023/12/07 09:38:12;;;;;;;0.05;0.05;;;4.90;99.90;;;;;;4931338;29;20028;-77
2023/12/07 09:40:38;;;;;;;0.10;0.10;;;4.20;99.90;;;;;;4923908;29;20107;-77
2023/12/07 09:43:04;;;;;;;0.20;0.20;;;4.20;99.90;;;;;;4923040;29;20031;-77
2023/12/07 09:45:30;;;;;;;0.40;0.40;;;4.20;99.90;;;;;;4922772;29;20034;-76
2023/12/07 09:47:56;;;;;;;0.10;0.10;;;4.30;99.90;;;;;;4923257;29;20073;-77
2023/12/07 09:50:25;;;;;;;0.10;0.10;;;4.30;99.90;;;;;;4922814;29;20071;-77
2023/12/07 09:52:55;;;;;;;0.30;0.30;;;4.40;99.90;;;;;;4922360;29;20523;-78
2023/12/07 09:55:22;;;;;;;0.10;0.10;;;4.40;99.90;;;;;;4928111;29;20043;-77
2023/12/07 09:57:48;;;;;;;5.55;5.30;;;4.50;99.90;;;;;;4932080;29;20040;-77
2023/12/07 10:00:15;;;;;;;0.00;0.00;;;4.40;99.90;;;;;;4916759;23;20123;-77
2023/12/07 10:02:45;;;;;;;0.20;0.20;;;4.50;99.90;;;;;;4965463;28;20189;-77
2023/12/07 10:05:13;;;;;;;0.03;0.03;;;4.50;99.90;;;;;;4949083;28;20663;-77
2023/12/07 10:07:48;;;;;;;0.00;0.00;;;4.60;99.90;;;;;;4966402;28;20106;-77
2023/12/07 10:10:23;;;;;;;0.10;0.10;;;4.60;99.90;;;;;;4953046;28;20056;-79
2023/12/07 10:12:58;;;;;;;0.10;0.10;;;5.30;99.90;;;;;;4945770;28;20102;-77
2023/12/07 10:15:25;;;;;;;0.10;0.10;;;4.60;99.90;;;;;;4942842;29;20180;-77
2023/12/07 10:17:56;;;;;;;0.10;0.10;;;4.60;99.90;;;;;;4949884;29;20094;-77
2023/12/07 10:20:28;;;;;;;0.03;0.03;;;4.60;99.90;;;;;;4957658;28;20015;-79
2023/12/07 10:23:05;;;;;;;0.15;0.15;;;4.60;99.90;;;;;;4962059;29;20020;-79
2023/12/07 10:25:35;;;;;;;0.10;0.10;;;4.70;99.90;;;;;;4960740;28;20023;-81
2023/12/07 10:28:06;;;;;;;0.10;0.10;;;;;;;;;;4945763;28;20030;-79
2023/12/07 10:30:51;;;;;;;0.10;0.10;;;4.60;99.90;;;;;;4940486;28;20035;-80
2023/12/07 10:34:06;;;;;;;0.10;0.10;;;4.70;99.90;;;;;;4945701;28;20521;-80
2023/12/07 10:37:15;;;;;;;0.10;0.10;;;4.50;99.90;;;;;;4946942;29;20059;-78
2023/12/07 10:40:21;;;;;;;0.08;0.08;;;4.30;99.90;;;;;;4941547;29;20051;-79
2023/12/07 10:42:56;;;;;;;0.10;0.10;;;4.40;99.90;;;;;;4896829;29;20036;-78
2023/12/07 10:45:25;;;;;;;0.10;0.10;;;4.20;99.90;;;;;;4930917;29;20023;-77
2023/12/07 10:48:04;;;;;;;0.10;0.10;;;4.30;99.90;;;;;;4901396;29;20127;-78
2023/12/07 10:50:47;;;;;;;;;;;;;;;;;;;;;
2023/12/07 10:53:26;;;;;;;0.10;0.10;;;4.20;99.90;;;;;;4886190;29;20183;-77
2023/12/07 10:56:02;;;;;;;0.03;0.03;;;4.30;99.90;;;;;;4881758;29;20084;-78
2023/12/07 10:58:45;;;;;;;0.10;0.10;;;4.40;99.90;;;;;;4906777;29;20028;-79
2023/12/07 11:01:11;;;;;;;1.23;1.23;;;4.30;99.90;;;;;;4934645;23;20710;-77
2023/12/07 11:03:40;;;;;;;0.10;0.10;;;4.20;99.90;;;;;;4961075;28;20045;-78
2023/12/07 11:09:27;;;;;;;17.77;16.33;;;4.90;99.90;;;;;;4962398;28;20065;-80
2023/12/07 11:14:30;;;;;;;0.10;0.10;;;4.20;99.90;;;;;;4971417;23;20054;-79
2023/12/07 11:16:58;;;;;;;0.30;0.30;;;4.50;99.90;;;;;;4970633;28;20089;-79
2023/12/07 11:19:33;;;;;;;0.10;0.10;;;4.30;99.90;;;;;;4963806;28;20038;-79
2023/12/07 11:22:00;;;;;;;0.10;0.10;;;4.40;99.90;;;;;;4964135;28;20650;-78
2023/12/07 11:24:26;;;;;;;0.10;0.10;;;;;;;;;;4967477;28;20421;-79
2023/12/07 11:27:10;;;;;;;0.10;0.10;;;4.50;99.90;;;;;;4973295;28;20019;-79
2023/12/07 11:29:36;;;;;;;19.67;18.52;;;;;;;;;;4969669;28;20106;-78
2023/12/07 11:32:04;;;;;;;0.00;0.00;;;4.60;99.90;;;;;;4964987;28;20020;-78
2023/12/07 11:34:52;;;;;;;0.05;0.05;;;4.60;99.90;;;;;;4968589;28;20102;-79
2023/12/07 11:37:18;;;;;;;2.17;1.77;;;;;;;;;;4966389;28;20031;-79
2023/12/07 11:39:47;;;;;;;0.10;0.10;;;4.80;99.90;;;;;;4946928;28;20592;-79
2023/12/07 11:42:16;;;;;;;0.10;0.10;;;5.00;99.90;;;;;;4948542;28;20033;-78
2023/12/07 11:44:44;;;;;;;11.85;9.10;;;5.00;99.90;;;;;;4966118;28;20693;-78
2023/12/07 11:47:18;;;;;;;0.10;0.10;;;5.10;99.90;;;;;;4974196;23;20265;-79
2023/12/07 11:49:50;;;;;;;0.08;0.08;;;5.20;99.90;;;;;;4969241;28;20039;-78
2023/12/07 11:52:18;;;;;;;0.52;0.52;;;5.30;99.90;;;;;;4975884;28;20360;-78
2023/12/07 11:54:48;;;;;;;2.20;2.17;;;5.20;99.90;;;;;;4967065;28;20035;-79
2023/12/07 11:57:15;;;;;;;0.10;0.10;;;5.20;99.90;;;;;;4966319;28;20663;-80
2023/12/07 11:59:43;;;;;;;0.10;0.10;;;5.30;99.90;;;;;;4964998;28;20745;-79
2023/12/07 12:02:11;;;;;;;0.10;0.10;;;5.20;99.90;;;;;;4950201;28;20031;-79
2023/12/07 12:04:38;;;;;;;0.10;0.10;;;5.30;99.90;;;;;;4965714;28;20085;-77
2023/12/07 12:07:04;;;;;;;0.10;0.10;;;5.20;99.90;;;;;;4965545;28;20037;-78
2023/12/07 12:09:30;;;;;;;0.10;0.10;;;5.30;99.90;;;;;;4966515;28;20106;-79
2023/12/07 12:18:27;;;;;;;2.75;2.65;;;5.50;99.90;;;;;;4970419;23;21029;-79
2023/12/07 12:20:54;;;;;;;44.53;42.97;;;5.20;99.90;;;;;;4970832;28;20027;-79
2023/12/07 12:23:20;;;;;;;0.10;0.10;;;5.30;99.90;;;;;;4972145;28;20462;-79
2023/12/07 12:25:47;;;;;;;0.10;0.10;;;5.30;99.90;;;;;;4955922;28;20027;-78
2023/12/07 12:28:19;;;;;;;0.10;0.10;;;5.40;99.90;;;;;;4942840;28;20026;-78
2023/12/07 12:30:45;;;;;;;0.85;0.85;;;5.30;99.90;;;;;;4976633;28;20015;-77
2023/12/07 12:36:43;;;;;;;0.10;0.10;;;5.50;99.90;;;;;;5101774;23;20047;-76
2023/12/07 12:39:13;;;;;;;4.60;4.40;;;4.60;99.90;;;;;;4895057;29;20231;-74
2023/12/07 12:41:40;;;;;;;0.10;0.10;;;5.60;99.90;;;;;;4866949;29;20037;-75
2023/12/07 12:44:05;;;;;;;0.10;0.10;;;5.50;99.90;;;;;;4870556;29;20032;-76
2023/12/07 12:46:32;;;;;;;0.10;0.10;;;5.50;99.90;;;;;;4862308;29;20050;-74
2023/12/07 12:48:59;;;;;;;0.57;0.57;;;5.50;99.90;;;;;;4849427;29;20113;-76
2023/12/07 12:51:27;;;;;;;0.10;0.10;;;5.50;99.90;;;;;;4847780;29;20124;-78
2023/12/07 12:53:54;;;;;;;11.20;5.60;;;5.60;99.90;;;;;;4846163;29;20120;-74
2023/12/07 12:56:21;;;;;;;0.10;0.10;;;5.60;99.90;;;;;;4845592;29;20936;-74
2023/12/07 12:58:51;;;;;;;0.10;0.10;;;5.60;99.90;;;;;;4849382;29;20094;-76
2023/12/07 13:01:17;;;;;;;0.10;0.10;;;5.60;99.90;;;;;;4853652;29;20057;-78
2023/12/07 13:03:45;;;;;;;0.10;0.10;;;5.70;99.90;;;;;;4925541;23;20055;-77
2023/12/07 13:06:14;;;;;;;0.10;0.10;;;5.70;99.90;;;;;;4962009;28;20058;-74
2023/12/07 13:08:40;;;;;;;0.10;0.10;;;5.70;99.90;;;;;;4960967;28;20532;-75
2023/12/07 13:11:06;;;;;;;0.10;0.10;;;5.80;99.90;;;;;;4961455;28;20121;-76
2023/12/07 13:13:32;;;;;;;0.10;0.10;;;5.70;99.90;;;;;;4962276;28;20607;-76
2023/12/07 13:15:58;;;;;;;0.10;0.10;;;5.80;99.90;;;;;;4958352;28;20023;-77
2023/12/07 13:18:24;;;;;;;2.40;2.33;;;5.70;99.90;;;;;;4944532;28;20020;-78
2023/12/07 13:20:50;;;;;;;0.15;0.15;;;5.70;99.90;;;;;;4943914;28;20023;-75
2023/12/07 13:23:16;;;;;;;0.32;0.32;;;5.70;99.90;;;;;;4942967;29;20078;-78
2023/12/07 13:25:42;;;;;;;2.58;2.47;;;5.60;99.90;;;;;;4943921;28;20034;-76
2023/12/07 13:28:08;;;;;;;0.10;0.10;;;5.60;99.90;;;;;;4944274;28;20031;-79